Terminal Aerodrome Forecast
Issued by NWS

Home | Current Version | Previous Version | Text Only | Print | Product List | Glossary On
Versions: 1 2 3 4 5 6 7 8 9 10 11 12 13 14 15 16 17 18
000
FTUS42 KMLB 292333
TAFISM
TAF
KISM 292333Z 3000/3024 18005KT P6SM FEW020 SCT030 BKN250
     FM300400 22004KT P6SM SCT035 SCT080
     FM301400 27007KT P6SM VCSH SCT025 SCT150 BKN250
      AMD NOT SKED 3003/3012=

USA.gov is the U.S. government's official web portal to all federal, state and local government web resources and services.